createdAt,value
2023-08-15T00:01:06.401Z,17.99
2023-08-15T00:04:09.021Z,17.90
2023-08-15T00:07:11.649Z,17.89
2023-08-15T00:10:14.057Z,17.91
2023-08-15T00:13:16.731Z,17.93
2023-08-15T00:16:19.199Z,18.00
2023-08-15T00:19:21.600Z,17.94
2023-08-15T00:22:24.005Z,17.65
2023-08-15T00:25:26.446Z,17.81
2023-08-15T00:28:28.856Z,17.68
2023-08-15T00:31:31.256Z,17.52
2023-08-15T00:34:33.643Z,17.63
2023-08-15T00:37:36.109Z,17.48
2023-08-15T00:40:41.667Z,17.53
2023-08-15T00:43:44.015Z,17.51
2023-08-15T00:46:48.649Z,17.49
2023-08-15T00:49:52.965Z,17.55
2023-08-15T00:52:55.665Z,17.33
2023-08-15T00:55:59.243Z,17.44
2023-08-15T00:59:02.230Z,17.58
2023-08-15T01:02:05.255Z,17.58
2023-08-15T01:05:08.405Z,17.56
2023-08-15T01:08:10.830Z,17.60
2023-08-15T01:11:14.161Z,17.52
2023-08-15T01:14:20.468Z,17.65
2023-08-15T01:17:34.538Z,17.83
2023-08-15T01:20:38.400Z,17.65
2023-08-15T01:23:44.715Z,17.72
2023-08-15T01:26:47.309Z,17.49
2023-08-15T01:29:50.658Z,17.46
2023-08-15T01:33:02.980Z,17.71
2023-08-15T01:36:19.932Z,17.61
2023-08-15T01:39:27.103Z,17.51
2023-08-15T01:42:32.773Z,17.41
2023-08-15T01:45:36.169Z,17.40
2023-08-15T01:48:42.791Z,17.32
2023-08-15T01:51:47.254Z,17.46
2023-08-15T01:54:49.650Z,17.45
2023-08-15T01:57:53.287Z,17.53
2023-08-15T02:00:55.990Z,17.27
2023-08-15T02:03:58.382Z,17.22
2023-08-15T02:07:00.800Z,17.18
2023-08-15T02:10:03.525Z,17.17
2023-08-15T02:13:05.886Z,16.95
2023-08-15T02:16:08.386Z,17.11
2023-08-15T02:19:11.026Z,17.15
2023-08-15T02:22:13.429Z,16.96
2023-08-15T02:25:15.895Z,17.12
2023-08-15T02:28:18.363Z,17.18
2023-08-15T02:31:20.783Z,17.11
2023-08-15T02:34:23.187Z,17.10
2023-08-15T02:37:25.696Z,16.94
2023-08-15T02:40:29.434Z,17.03
2023-08-15T02:43:31.843Z,17.07
2023-08-15T02:46:35.564Z,16.84
2023-08-15T02:49:39.775Z,17.04
2023-08-15T02:52:42.325Z,17.01
2023-08-15T02:55:44.770Z,17.02
2023-08-15T02:58:47.277Z,16.72
2023-08-15T03:01:49.754Z,16.77
2023-08-15T03:04:52.194Z,16.65
2023-08-15T03:07:54.592Z,16.62
2023-08-15T03:10:57.666Z,16.52
2023-08-15T03:14:00.085Z,16.38
2023-08-15T03:17:03.939Z,16.51
2023-08-15T03:20:07.336Z,16.28
2023-08-15T03:23:10.028Z,16.38
2023-08-15T03:26:13.431Z,16.51
2023-08-15T03:29:16.354Z,16.31
2023-08-15T03:32:18.787Z,16.27
2023-08-15T03:35:22.885Z,16.42
2023-08-15T03:38:25.597Z,16.37
2023-08-15T03:41:28.507Z,16.47
2023-08-15T03:44:30.861Z,16.50
2023-08-15T03:47:33.392Z,16.50
2023-08-15T03:50:39.700Z,16.70
2023-08-15T03:53:44.250Z,16.63
2023-08-15T03:56:46.689Z,16.85
2023-08-15T03:59:49.058Z,16.85
2023-08-15T04:02:51.780Z,16.90
2023-08-15T04:05:54.296Z,16.90
2023-08-15T04:08:56.806Z,16.96
2023-08-15T04:11:59.211Z,17.02
2023-08-15T04:15:01.692Z,16.97
2023-08-15T04:18:06.651Z,17.04
2023-08-15T04:21:11.476Z,17.18
2023-08-15T04:24:14.138Z,17.29
2023-08-15T04:27:16.548Z,17.32
2023-08-15T04:30:19.419Z,17.38
2023-08-15T04:33:21.878Z,17.63
2023-08-15T04:36:24.478Z,17.64
2023-08-15T04:39:28.379Z,17.73
2023-08-15T04:42:30.825Z,17.99
2023-08-15T04:45:33.450Z,18.18
2023-08-15T04:48:35.873Z,18.24
2023-08-15T04:51:38.329Z,18.50
2023-08-15T04:54:41.666Z,18.39
2023-08-15T04:57:44.907Z,18.70
2023-08-15T05:00:47.413Z,18.79
2023-08-15T05:03:49.802Z,18.87
2023-08-15T05:06:52.179Z,19.14
2023-08-15T05:09:54.543Z,19.16
2023-08-15T05:13:00.349Z,19.51
2023-08-15T05:16:03.250Z,19.74
2023-08-15T05:19:05.743Z,19.77
2023-08-15T05:22:08.416Z,19.94
2023-08-15T05:25:11.297Z,20.29
2023-08-15T05:28:20.138Z,20.53
2023-08-15T05:31:22.644Z,20.55
2023-08-15T05:34:25.060Z,20.94
2023-08-15T05:37:27.422Z,21.08
2023-08-15T05:40:31.240Z,21.48
2023-08-15T05:43:33.895Z,22.26
2023-08-15T05:46:36.251Z,23.03
2023-08-15T05:49:38.785Z,23.61
2023-08-15T05:52:41.195Z,24.38
2023-08-15T05:55:46.730Z,24.70
2023-08-15T05:58:49.222Z,25.63
2023-08-15T06:01:51.617Z,26.12
2023-08-15T06:04:54.563Z,26.90
2023-08-15T06:07:56.906Z,27.39
2023-08-15T06:10:59.262Z,27.81
2023-08-15T06:14:01.674Z,28.33
2023-08-15T06:17:05.308Z,28.44
2023-08-15T06:20:08.073Z,29.29
2023-08-15T06:23:10.872Z,29.54
2023-08-15T06:26:13.437Z,28.96
2023-08-15T06:29:15.859Z,29.47
2023-08-15T06:32:28.455Z,30.84
2023-08-15T06:35:31.486Z,30.68
2023-08-15T06:38:33.866Z,29.60
2023-08-15T06:41:36.258Z,29.13
2023-08-15T06:44:39.607Z,29.95
2023-08-15T06:47:41.955Z,30.27
2023-08-15T06:50:46.183Z,31.29
2023-08-15T06:53:54.126Z,32.33
2023-08-15T06:56:56.585Z,32.39
2023-08-15T06:59:59.003Z,32.71
2023-08-15T07:03:01.506Z,33.38
2023-08-15T07:06:05.396Z,33.04
2023-08-15T07:09:08.014Z,34.00
2023-08-15T07:12:11.117Z,34.47
2023-08-15T07:15:13.469Z,34.23
2023-08-15T07:18:15.838Z,34.82
2023-08-15T07:21:18.208Z,35.33
2023-08-15T07:24:20.758Z,35.35
2023-08-15T07:27:23.176Z,36.12
2023-08-15T07:30:25.633Z,36.21
2023-08-15T07:33:28.390Z,36.22
2023-08-15T07:36:31.014Z,36.63
2023-08-15T07:39:33.482Z,35.32
2023-08-15T07:42:36.363Z,36.16
2023-08-15T07:45:38.776Z,35.53
2023-08-15T07:48:41.311Z,36.61
2023-08-15T07:51:43.702Z,37.09
2023-08-15T07:54:46.732Z,37.01
2023-08-15T07:57:49.169Z,35.89
2023-08-15T08:00:51.523Z,35.97
2023-08-15T08:03:53.879Z,36.83
2023-08-15T08:06:56.326Z,37.25
2023-08-15T08:10:00.434Z,38.12
2023-08-15T08:13:02.934Z,38.48
2023-08-15T08:16:05.919Z,38.84
2023-08-15T08:19:08.383Z,38.52
2023-08-15T08:22:10.751Z,38.88
2023-08-15T08:25:31.001Z,38.87
2023-08-15T08:28:33.647Z,38.74
2023-08-15T08:31:36.109Z,38.70
2023-08-15T08:34:38.549Z,38.67
2023-08-15T08:37:40.970Z,39.05
2023-08-15T08:40:43.439Z,39.47
2023-08-15T08:43:45.967Z,39.68
2023-08-15T08:46:48.442Z,39.89
2023-08-15T08:49:53.707Z,39.16
2023-08-15T08:52:56.457Z,39.64
2023-08-15T08:55:59.146Z,39.31
2023-08-15T08:59:06.486Z,39.61
2023-08-15T09:02:14.894Z,40.04
2023-08-15T09:05:17.874Z,40.43
2023-08-15T09:08:20.251Z,40.41
2023-08-15T09:11:22.615Z,40.03
2023-08-15T09:14:25.023Z,39.09
2023-08-15T09:17:28.149Z,39.52
2023-08-15T09:20:30.620Z,39.93
2023-08-15T09:23:33.166Z,39.65
2023-08-15T09:26:36.573Z,39.03
2023-08-15T09:29:39.001Z,37.80
2023-08-15T09:32:45.963Z,37.45
2023-08-15T09:35:57.964Z,37.83
2023-08-15T09:39:01.393Z,38.24
2023-08-15T09:42:03.959Z,38.68
2023-08-15T09:45:08.565Z,39.18
2023-08-15T09:48:11.446Z,38.13
2023-08-15T09:51:17.052Z,37.48
2023-08-15T09:54:20.133Z,37.88
2023-08-15T09:57:22.918Z,38.43
2023-08-15T10:00:25.604Z,38.72
2023-08-15T10:03:34.898Z,39.16
2023-08-15T10:06:37.805Z,39.43
2023-08-15T10:09:41.318Z,39.63
2023-08-15T10:12:46.822Z,39.92
2023-08-15T10:15:51.021Z,40.07
2023-08-15T10:18:55.574Z,39.48
2023-08-15T10:21:57.971Z,37.97
2023-08-15T10:25:29.376Z,36.19
2023-08-15T10:28:35.283Z,34.41
2023-08-15T10:31:40.209Z,34.16
2023-08-15T10:34:42.673Z,36.75
2023-08-15T10:37:47.953Z,35.52
2023-08-15T10:40:53.075Z,36.04
2023-08-15T10:43:56.942Z,36.08
2023-08-15T10:46:59.475Z,36.83
2023-08-15T10:50:02.090Z,36.54
2023-08-15T10:53:06.757Z,36.71
2023-08-15T10:56:10.660Z,38.26
2023-08-15T10:59:16.963Z,38.98
2023-08-15T11:02:19.531Z,39.99
2023-08-15T11:05:22.443Z,38.45
2023-08-15T11:08:24.832Z,38.09
2023-08-15T11:11:27.182Z,38.58
2023-08-15T11:14:29.765Z,38.80
2023-08-15T11:17:32.166Z,38.58
2023-08-15T11:20:34.987Z,39.25
2023-08-15T11:23:37.930Z,39.15
2023-08-15T11:26:44.058Z,38.88
2023-08-15T11:29:57.257Z,38.50
2023-08-15T11:32:59.853Z,38.03
2023-08-15T11:36:07.634Z,38.62
2023-08-15T11:39:14.079Z,38.40
2023-08-15T11:42:16.891Z,38.89
2023-08-15T11:45:22.480Z,38.98
2023-08-15T11:48:24.966Z,38.77
2023-08-15T11:51:27.425Z,38.00
2023-08-15T11:54:29.826Z,37.87
2023-08-15T11:57:38.489Z,38.89
2023-08-15T12:00:41.002Z,38.92
2023-08-15T12:03:43.523Z,38.94
2023-08-15T12:06:46.463Z,38.53
2023-08-15T12:09:49.060Z,38.74
2023-08-15T12:12:52.729Z,38.91
2023-08-15T12:15:55.089Z,38.28
2023-08-15T12:18:58.296Z,38.14
2023-08-15T12:22:00.653Z,38.01
2023-08-15T12:25:03.047Z,38.68
2023-08-15T12:28:06.118Z,39.51
2023-08-15T12:31:08.475Z,37.94
2023-08-15T12:34:10.930Z,38.04
2023-08-15T12:37:13.346Z,38.48
2023-08-15T12:40:30.054Z,39.23
2023-08-15T12:43:33.442Z,37.98
2023-08-15T12:46:35.858Z,38.57
2023-08-15T12:49:39.739Z,36.87
2023-08-15T12:52:42.150Z,35.31
2023-08-15T12:55:46.479Z,35.55
2023-08-15T12:58:48.982Z,35.72
2023-08-15T13:01:51.405Z,35.80
2023-08-15T13:04:53.904Z,36.72
2023-08-15T13:07:56.420Z,36.42
2023-08-15T13:10:58.829Z,37.19
2023-08-15T13:14:02.265Z,36.84
2023-08-15T13:17:05.374Z,37.95
2023-08-15T13:20:08.507Z,38.32
2023-08-15T13:23:11.237Z,37.48
2023-08-15T13:26:14.348Z,37.10
2023-08-15T13:29:16.742Z,36.20
2023-08-15T13:32:19.094Z,35.01
2023-08-15T13:35:21.484Z,34.87
2023-08-15T13:38:24.185Z,34.50
2023-08-15T13:41:26.729Z,34.14
2023-08-15T13:44:29.076Z,33.77
2023-08-15T13:47:31.508Z,33.58
2023-08-15T13:50:34.182Z,33.85
2023-08-15T13:53:36.558Z,33.82
2023-08-15T13:56:39.429Z,34.32
2023-08-15T13:59:42.151Z,34.07
2023-08-15T14:02:44.808Z,33.49
2023-08-15T14:05:47.374Z,33.18
2023-08-15T14:08:49.772Z,32.88
2023-08-15T14:11:52.163Z,33.15
2023-08-15T14:14:54.601Z,33.29
2023-08-15T14:17:57.046Z,33.30
2023-08-15T14:20:59.453Z,33.79
2023-08-15T14:24:03.746Z,33.62
2023-08-15T14:27:06.295Z,33.53
2023-08-15T14:30:09.418Z,33.89
2023-08-15T14:33:13.269Z,34.06
2023-08-15T14:36:15.732Z,34.16
2023-08-15T14:39:18.233Z,34.19
2023-08-15T14:42:21.069Z,33.90
2023-08-15T14:45:23.724Z,33.68
2023-08-15T14:48:26.273Z,33.47
2023-08-15T14:51:29.096Z,33.46
2023-08-15T14:54:31.538Z,33.02
2023-08-15T14:57:33.918Z,33.30
2023-08-15T15:00:36.467Z,33.41
2023-08-15T15:03:39.092Z,33.57
2023-08-15T15:06:41.756Z,32.94
2023-08-15T15:09:44.203Z,32.40
2023-08-15T15:12:48.140Z,32.18
2023-08-15T15:15:54.301Z,32.10
2023-08-15T15:18:57.171Z,32.17
2023-08-15T15:22:00.647Z,32.10
2023-08-15T15:25:03.105Z,32.35
2023-08-15T15:28:05.985Z,32.09
2023-08-15T15:31:08.383Z,31.66
2023-08-15T15:34:10.828Z,31.93
2023-08-15T15:37:13.203Z,31.99
2023-08-15T15:40:15.637Z,31.95
2023-08-15T15:43:18.089Z,31.81
2023-08-15T15:46:20.563Z,31.63
2023-08-15T15:49:23.498Z,31.26
2023-08-15T15:52:25.953Z,31.14
2023-08-15T15:55:28.387Z,31.00
2023-08-15T15:58:30.748Z,31.04
2023-08-15T16:01:33.197Z,30.89
2023-08-15T16:04:35.690Z,30.91
2023-08-15T16:07:38.270Z,30.77
2023-08-15T16:10:40.659Z,30.69
2023-08-15T16:13:42.993Z,30.57
2023-08-15T16:16:45.420Z,30.67
2023-08-15T16:19:47.805Z,30.55
2023-08-15T16:22:50.222Z,30.24
2023-08-15T16:25:52.579Z,30.29
2023-08-15T16:28:54.964Z,29.99
2023-08-15T16:31:58.510Z,29.85
2023-08-15T16:35:00.898Z,29.67
2023-08-15T16:38:03.374Z,29.55
2023-08-15T16:41:06.494Z,29.26
2023-08-15T16:44:08.930Z,29.27
2023-08-15T16:47:11.321Z,29.14
2023-08-15T16:50:13.757Z,29.03
2023-08-15T16:53:17.593Z,28.90
2023-08-15T16:56:19.996Z,28.92
2023-08-15T16:59:22.447Z,28.91
2023-08-15T17:02:25.256Z,28.87
2023-08-15T17:05:27.986Z,28.79
2023-08-15T17:08:30.388Z,28.60
2023-08-15T17:11:32.789Z,28.64
2023-08-15T17:14:35.192Z,28.58
2023-08-15T17:17:37.741Z,28.60
2023-08-15T17:20:40.167Z,28.43
2023-08-15T17:23:43.129Z,28.22
2023-08-15T17:26:45.488Z,28.18
2023-08-15T17:29:48.042Z,28.23
2023-08-15T17:32:50.417Z,28.15
2023-08-15T17:35:52.826Z,27.80
2023-08-15T17:38:55.210Z,27.73
2023-08-15T17:41:57.646Z,27.58
2023-08-15T17:45:00.297Z,27.48
2023-08-15T17:48:02.703Z,27.38
2023-08-15T17:51:05.122Z,27.12
2023-08-15T17:54:09.300Z,27.16
2023-08-15T17:57:11.628Z,27.29
2023-08-15T18:00:14.605Z,27.48
2023-08-15T18:03:17.006Z,27.24
2023-08-15T18:06:19.764Z,27.17
2023-08-15T18:09:25.426Z,27.33
2023-08-15T18:12:30.650Z,27.29
2023-08-15T18:15:33.074Z,26.99
2023-08-15T18:18:35.923Z,26.97
2023-08-15T18:21:38.315Z,26.81
2023-08-15T18:24:40.822Z,26.79
2023-08-15T18:27:43.204Z,26.74
2023-08-15T18:30:45.694Z,26.39
2023-08-15T18:33:48.073Z,26.29
2023-08-15T18:36:50.475Z,25.98
2023-08-15T18:39:52.827Z,26.11
2023-08-15T18:42:55.194Z,25.86
2023-08-15T18:45:57.692Z,25.80
2023-08-15T18:49:00.179Z,25.80
2023-08-15T18:52:02.744Z,25.69
2023-08-15T18:55:05.652Z,25.66
2023-08-15T18:58:08.946Z,25.43
2023-08-15T19:01:11.368Z,25.31
2023-08-15T19:04:13.728Z,25.08
2023-08-15T19:07:16.330Z,25.05
2023-08-15T19:10:18.699Z,25.08
2023-08-15T19:13:22.832Z,24.97
2023-08-15T19:16:25.396Z,24.82
2023-08-15T19:19:27.924Z,24.77
2023-08-15T19:22:30.298Z,24.64
2023-08-15T19:25:32.806Z,24.70
2023-08-15T19:28:35.242Z,24.55
2023-08-15T19:31:38.258Z,24.63
2023-08-15T19:34:49.878Z,24.33
2023-08-15T19:37:52.302Z,24.34
2023-08-15T19:40:54.634Z,24.24
2023-08-15T19:43:59.534Z,24.21
2023-08-15T19:47:02.205Z,24.18
2023-08-15T19:50:05.556Z,24.29
2023-08-15T19:53:07.960Z,24.12
2023-08-15T19:56:10.486Z,24.19
2023-08-15T19:59:12.870Z,24.25
2023-08-15T20:02:15.233Z,24.08
2023-08-15T20:05:18.853Z,24.10
2023-08-15T20:08:21.238Z,24.22
2023-08-15T20:11:23.601Z,24.13
2023-08-15T20:14:28.733Z,24.14
2023-08-15T20:17:31.338Z,23.97
2023-08-15T20:20:33.810Z,24.11
2023-08-15T20:23:36.213Z,24.23
2023-08-15T20:26:38.556Z,24.44
2023-08-15T20:29:44.593Z,24.37
2023-08-15T20:32:47.044Z,24.17
2023-08-15T20:35:49.483Z,23.98
2023-08-15T20:38:51.899Z,24.06
2023-08-15T20:41:54.608Z,24.18
2023-08-15T20:44:56.994Z,24.31
2023-08-15T20:47:59.433Z,24.35
2023-08-15T20:51:01.887Z,24.19
2023-08-15T20:54:04.608Z,23.85
2023-08-15T20:57:06.959Z,23.69
2023-08-15T21:00:10.865Z,23.75
2023-08-15T21:03:13.712Z,23.62
2023-08-15T21:06:16.415Z,23.36
2023-08-15T21:09:19.366Z,23.39
2023-08-15T21:12:22.114Z,23.10
2023-08-15T21:15:24.789Z,22.92
2023-08-15T21:18:27.217Z,22.88
2023-08-15T21:21:29.586Z,22.74
2023-08-15T21:24:32.002Z,22.79
2023-08-15T21:27:34.412Z,22.67
2023-08-15T21:30:38.031Z,22.79
2023-08-15T21:33:40.510Z,23.03
2023-08-15T21:36:42.893Z,23.01
2023-08-15T21:39:45.231Z,23.19
2023-08-15T21:42:47.771Z,23.00
2023-08-15T21:45:50.390Z,23.12
2023-08-15T21:48:52.975Z,23.18
2023-08-15T21:51:55.387Z,23.16
2023-08-15T21:54:57.794Z,23.25
2023-08-15T21:58:00.205Z,23.22
2023-08-15T22:01:03.548Z,23.35
2023-08-15T22:04:06.094Z,23.28
2023-08-15T22:07:08.458Z,23.38
2023-08-15T22:10:11.021Z,23.42
2023-08-15T22:13:13.419Z,23.49
2023-08-15T22:16:16.158Z,23.53
2023-08-15T22:19:18.637Z,23.38
2023-08-15T22:22:21.047Z,23.46
2023-08-15T22:25:23.852Z,23.39
2023-08-15T22:28:26.242Z,23.25
2023-08-15T22:31:28.971Z,22.79
2023-08-15T22:34:31.409Z,23.01
2023-08-15T22:37:33.965Z,22.80
2023-08-15T22:40:36.615Z,22.89
2023-08-15T22:43:39.124Z,22.65
2023-08-15T22:46:41.519Z,22.66
2023-08-15T22:49:43.900Z,22.65
2023-08-15T22:52:46.286Z,22.61
2023-08-15T22:55:48.706Z,22.58
2023-08-15T22:58:51.078Z,22.64
2023-08-15T23:01:53.482Z,22.27
2023-08-15T23:04:55.842Z,21.91
2023-08-15T23:07:58.174Z,21.99
2023-08-15T23:11:00.548Z,21.78
2023-08-15T23:14:02.899Z,21.80
2023-08-15T23:17:05.255Z,21.78
2023-08-15T23:20:09.321Z,21.75
2023-08-15T23:23:12.074Z,21.73
2023-08-15T23:26:14.506Z,21.76
2023-08-15T23:29:16.946Z,21.76
2023-08-15T23:32:19.314Z,21.55
2023-08-15T23:35:21.818Z,21.49
2023-08-15T23:38:24.223Z,21.47
2023-08-15T23:41:27.498Z,21.31
2023-08-15T23:44:29.914Z,21.24
2023-08-15T23:47:32.524Z,21.26
2023-08-15T23:50:34.916Z,21.22
2023-08-15T23:53:37.341Z,21.26
2023-08-15T23:56:39.779Z,21.49
2023-08-15T23:59:42.196Z,21.34
